Terminal Aerodrome Forecast
Issued by NWS Mt. Holly, NJ

Current Version | Previous Version | Text Only | Print | Product List | Glossary On
Versions: 1 2 3 4 5 6 7 8 9 10 11 12 13 14 15 16 17 18 19 20 21 22 23 24 25 26 27 28 29 30 31 32 33 34 35 36 37 38 39
000
FTUS41 KPHI 262300
TAFPHL
TAF
KPHL 262329Z 2700/2806 33015KT 3SM -SNRA BR OVC010
      TEMPO 2700/2702 1 1/2SM -SN BR OVC006
     FM270500 34010KT 3SM BR OVC015
     FM270600 32004KT 5SM BR OVC025
     FM271100 33005KT P6SM BKN040
     FM272300 31005KT P6SM BKN200=

USA.gov is the U.S. government's official web portal to all federal, state and local government web resources and services.